createdAt,value
2018-03-07T00:00:39.510Z,53.63
2018-03-07T00:03:06.638Z,56.53
2018-03-07T00:05:33.796Z,53.00
2018-03-07T00:08:00.952Z,59.20
2018-03-07T00:10:28.082Z,52.47
2018-03-07T00:12:55.406Z,59.27
2018-03-07T00:15:21.830Z,57.93
2018-03-07T00:17:48.274Z,58.93
2018-03-07T00:20:14.737Z,58.10
2018-03-07T00:22:41.881Z,58.33
2018-03-07T00:25:09.127Z,59.13
2018-03-07T00:27:35.571Z,57.00
2018-03-07T00:30:02.079Z,54.50
2018-03-07T00:32:28.529Z,56.97
2018-03-07T00:34:54.963Z,50.57
2018-03-07T00:37:22.212Z,50.07
2018-03-07T00:39:48.591Z,60.00
2018-03-07T00:42:15.156Z,52.90
2018-03-07T00:44:41.568Z,57.73
2018-03-07T00:47:07.946Z,51.73
2018-03-07T00:49:34.583Z,57.07
2018-03-07T00:52:04.088Z,49.80
2018-03-07T00:54:31.247Z,53.60
2018-03-07T00:56:58.435Z,52.70
2018-03-07T00:59:24.872Z,51.00
2018-03-07T01:01:51.325Z,50.20
2018-03-07T01:04:17.778Z,49.57
2018-03-07T01:06:44.303Z,56.50
2018-03-07T01:09:10.861Z,49.37
2018-03-07T01:11:38.196Z,53.57
2018-03-07T01:14:04.648Z,54.57
2018-03-07T01:16:31.080Z,51.20
2018-03-07T01:18:58.986Z,49.90
2018-03-07T01:21:25.482Z,52.90
2018-03-07T01:23:51.900Z,51.70
2018-03-07T01:26:18.457Z,54.13
2018-03-07T01:28:44.954Z,44.97
2018-03-07T01:31:11.397Z,47.13
2018-03-07T01:33:37.815Z,51.20
2018-03-07T01:36:04.281Z,47.20
2018-03-07T01:38:30.748Z,47.80
2018-03-07T01:40:57.218Z,48.73
2018-03-07T01:43:23.686Z,52.40
2018-03-07T01:45:50.085Z,46.80
2018-03-07T01:48:16.551Z,49.50
2018-03-07T01:50:42.935Z,52.10
2018-03-07T01:53:09.357Z,54.80
2018-03-07T01:55:35.814Z,49.37
2018-03-07T01:58:02.361Z,52.30
2018-03-07T02:00:28.783Z,51.50
2018-03-07T02:02:55.233Z,53.90
2018-03-07T02:05:21.626Z,52.60
2018-03-07T02:07:48.007Z,52.17
2018-03-07T02:10:14.419Z,46.63
2018-03-07T02:12:40.817Z,48.43
2018-03-07T02:15:07.598Z,52.93
2018-03-07T02:17:34.061Z,48.43
2018-03-07T02:20:00.692Z,52.97
2018-03-07T02:22:27.097Z,49.30
2018-03-07T02:24:53.592Z,52.13
2018-03-07T02:27:20.742Z,42.43
2018-03-07T02:29:47.116Z,46.27
2018-03-07T02:32:13.519Z,43.20
2018-03-07T02:34:39.925Z,39.10
2018-03-07T02:37:06.384Z,40.93
2018-03-07T02:39:32.975Z,42.30
2018-03-07T02:41:59.376Z,41.83
2018-03-07T02:44:25.836Z,42.03
2018-03-07T02:46:52.258Z,48.73
2018-03-07T02:49:18.812Z,41.73
2018-03-07T02:51:45.345Z,46.53
2018-03-07T02:54:11.988Z,37.47
2018-03-07T02:56:39.110Z,41.97
2018-03-07T02:59:05.495Z,43.80
2018-03-07T03:01:31.980Z,37.57
2018-03-07T03:03:58.387Z,42.90
2018-03-07T03:06:25.040Z,38.17
2018-03-07T03:08:51.510Z,36.33
2018-03-07T03:11:18.861Z,36.67
2018-03-07T03:13:45.243Z,36.20
2018-03-07T03:16:11.674Z,41.40
2018-03-07T03:18:38.160Z,36.03
2018-03-07T03:21:04.607Z,32.27
2018-03-07T03:23:31.782Z,39.37
2018-03-07T03:25:58.154Z,36.03
2018-03-07T03:28:24.683Z,40.10
2018-03-07T03:30:51.127Z,36.77
2018-03-07T03:33:17.489Z,40.47
2018-03-07T03:35:43.865Z,34.50
2018-03-07T03:38:10.303Z,34.50
2018-03-07T03:40:36.690Z,36.00
2018-03-07T03:43:03.841Z,36.37
2018-03-07T03:45:33.054Z,36.40
2018-03-07T03:48:00.213Z,37.43
2018-03-07T03:50:26.641Z,39.40
2018-03-07T03:52:53.060Z,39.53
2018-03-07T03:55:19.441Z,39.10
2018-03-07T03:57:45.820Z,41.03
2018-03-07T04:00:12.999Z,37.70
2018-03-07T04:02:39.392Z,44.80
2018-03-07T04:05:06.531Z,40.00
2018-03-07T04:07:32.963Z,41.00
2018-03-07T04:09:59.338Z,56.63
2018-03-07T04:12:25.750Z,42.97
2018-03-07T04:14:52.194Z,45.80
2018-03-07T04:17:18.578Z,42.20
2018-03-07T04:19:44.974Z,41.80
2018-03-07T04:22:11.532Z,38.70
2018-03-07T04:24:37.934Z,40.63
2018-03-07T04:27:04.525Z,46.37
2018-03-07T04:29:30.973Z,42.03
2018-03-07T04:31:58.211Z,45.63
2018-03-07T04:34:25.363Z,46.83
2018-03-07T04:36:51.898Z,41.97
2018-03-07T04:39:18.350Z,44.43
2018-03-07T04:41:45.482Z,44.23
2018-03-07T04:44:11.874Z,40.00
2018-03-07T04:46:38.344Z,37.00
2018-03-07T04:49:04.738Z,39.60
2018-03-07T04:51:31.212Z,39.07
2018-03-07T04:53:57.636Z,43.93
2018-03-07T04:56:24.039Z,44.07
2018-03-07T04:58:50.446Z,37.60
2018-03-07T05:01:16.842Z,41.70
2018-03-07T05:03:43.234Z,40.80
2018-03-07T05:06:09.742Z,39.70
2018-03-07T05:08:36.114Z,38.70
2018-03-07T05:11:02.497Z,40.57
2018-03-07T05:13:29.788Z,42.63
2018-03-07T05:15:56.262Z,40.70
2018-03-07T05:18:29.594Z,40.07
2018-03-07T05:20:56.713Z,40.00
2018-03-07T05:23:23.164Z,47.00
2018-03-07T05:25:49.610Z,38.07
2018-03-07T05:28:16.104Z,37.60
2018-03-07T05:30:43.253Z,40.73
2018-03-07T05:33:09.658Z,41.20
2018-03-07T05:35:36.057Z,37.17
2018-03-07T05:38:02.551Z,40.70
2018-03-07T05:40:28.960Z,42.93
2018-03-07T05:42:55.382Z,42.87
2018-03-07T05:45:21.854Z,46.93
2018-03-07T05:47:48.264Z,38.87
2018-03-07T05:50:14.642Z,42.97
2018-03-07T05:52:41.839Z,34.37
2018-03-07T05:55:08.277Z,36.97
2018-03-07T05:57:34.664Z,35.87
2018-03-07T06:00:01.165Z,31.67
2018-03-07T06:02:27.573Z,46.50
2018-03-07T06:04:53.971Z,34.20
2018-03-07T06:07:20.400Z,34.83
2018-03-07T06:09:46.832Z,41.73
2018-03-07T06:12:13.225Z,46.40
2018-03-07T06:14:39.664Z,42.53
2018-03-07T06:17:06.968Z,48.87
2018-03-07T06:19:33.405Z,48.97
2018-03-07T06:21:59.788Z,40.97
2018-03-07T06:24:26.999Z,51.37
2018-03-07T06:26:53.416Z,42.50
2018-03-07T06:29:19.897Z,38.90
2018-03-07T06:31:46.331Z,32.60
2018-03-07T06:34:12.742Z,32.40
2018-03-07T06:36:39.158Z,26.27
2018-03-07T06:39:05.576Z,27.67
2018-03-07T06:41:31.974Z,24.70
2018-03-07T06:43:58.365Z,29.10
2018-03-07T06:46:24.942Z,26.93
2018-03-07T06:48:52.090Z,27.90
2018-03-07T06:51:19.231Z,31.20
2018-03-07T06:53:45.667Z,27.20
2018-03-07T06:56:12.913Z,28.87
2018-03-07T06:58:39.494Z,28.80
2018-03-07T07:01:05.916Z,33.43
2018-03-07T07:03:32.306Z,31.70
2018-03-07T07:05:58.688Z,34.20
2018-03-07T07:08:25.180Z,34.38
2018-03-07T07:10:51.578Z,35.47
2018-03-07T07:13:18.075Z,36.60
2018-03-07T07:15:44.499Z,33.80
2018-03-07T07:18:11.676Z,33.27
2018-03-07T07:20:38.071Z,31.77
2018-03-07T07:23:04.596Z,31.70
2018-03-07T07:25:31.045Z,32.00
2018-03-07T07:27:58.182Z,36.10
2018-03-07T07:30:24.645Z,35.60
2018-03-07T07:32:51.091Z,32.17
2018-03-07T07:35:17.484Z,40.33
2018-03-07T07:37:43.924Z,34.87
2018-03-07T07:40:10.333Z,35.77
2018-03-07T07:42:36.755Z,33.10
2018-03-07T07:45:03.208Z,34.43
2018-03-07T07:47:29.746Z,35.60
2018-03-07T07:49:56.918Z,33.53
2018-03-07T07:52:24.143Z,39.33
2018-03-07T07:54:50.839Z,39.93
2018-03-07T07:57:17.324Z,38.83
2018-03-07T07:59:44.482Z,35.67
2018-03-07T08:02:10.889Z,36.63
2018-03-07T08:04:37.280Z,33.87
2018-03-07T08:07:03.738Z,36.30
2018-03-07T08:09:30.101Z,32.33
2018-03-07T08:11:56.645Z,32.37
2018-03-07T08:14:30.845Z,32.77
2018-03-07T08:16:57.386Z,32.10
2018-03-07T08:19:24.652Z,29.70
2018-03-07T08:21:51.162Z,31.60
2018-03-07T08:24:17.608Z,36.43
2018-03-07T08:26:44.024Z,29.50
2018-03-07T08:29:10.482Z,33.90
2018-03-07T08:31:36.911Z,34.27
2018-03-07T08:34:04.235Z,34.27
2018-03-07T08:36:30.797Z,32.73
2018-03-07T08:38:57.954Z,33.63
2018-03-07T08:41:24.387Z,30.53
2018-03-07T08:43:51.017Z,29.83
2018-03-07T08:46:17.428Z,32.50
2018-03-07T08:48:45.598Z,40.47
2018-03-07T08:51:12.158Z,35.40
2018-03-07T08:53:39.355Z,28.50
2018-03-07T08:56:05.824Z,29.43
2018-03-07T08:58:32.228Z,31.03
2018-03-07T09:00:58.651Z,30.13
2018-03-07T09:03:25.059Z,26.63
2018-03-07T09:05:52.395Z,31.13
2018-03-07T09:08:18.909Z,28.07
2018-03-07T09:10:45.362Z,26.40
2018-03-07T09:13:11.884Z,23.20
2018-03-07T09:15:38.290Z,22.00
2018-03-07T09:18:04.807Z,28.87
2018-03-07T09:20:32.020Z,27.23
2018-03-07T09:22:59.186Z,20.17
2018-03-07T09:25:25.809Z,22.03
2018-03-07T09:27:52.281Z,19.07
2018-03-07T09:30:18.679Z,21.13
2018-03-07T09:32:45.122Z,19.00
2018-03-07T09:35:11.511Z,20.63
2018-03-07T09:37:38.018Z,20.10
2018-03-07T09:40:04.437Z,19.43
2018-03-07T09:42:30.858Z,21.13
2018-03-07T09:44:58.021Z,21.90
2018-03-07T09:47:24.452Z,18.87
2018-03-07T09:49:58.506Z,19.80
2018-03-07T09:52:24.931Z,18.20
2018-03-07T09:54:51.319Z,16.27
2018-03-07T09:57:18.531Z,15.47
2018-03-07T09:59:44.935Z,13.17
2018-03-07T10:02:11.350Z,13.63
2018-03-07T10:04:37.780Z,13.67
2018-03-07T10:07:04.269Z,14.67
2018-03-07T10:09:30.852Z,12.73
2018-03-07T10:11:57.438Z,15.30
2018-03-07T10:14:23.987Z,13.47
2018-03-07T10:16:50.523Z,13.40
2018-03-07T10:19:16.967Z,12.90
2018-03-07T10:21:43.380Z,10.90
2018-03-07T10:24:09.779Z,9.83
2018-03-07T10:26:36.308Z,10.30
2018-03-07T10:29:02.690Z,11.37
2018-03-07T10:31:29.852Z,9.17
2018-03-07T10:33:56.278Z,9.07
2018-03-07T10:36:22.683Z,15.03
2018-03-07T10:38:49.141Z,9.37
2018-03-07T10:41:16.375Z,11.60
2018-03-07T10:43:42.854Z,8.30
2018-03-07T10:46:09.263Z,7.33
2018-03-07T10:48:35.694Z,11.07
2018-03-07T10:51:02.106Z,9.50
2018-03-07T10:53:28.472Z,8.00
2018-03-07T10:55:55.648Z,7.00
2018-03-07T10:58:22.930Z,8.47
2018-03-07T11:00:49.363Z,7.53
2018-03-07T11:03:15.815Z,7.30
2018-03-07T11:05:42.188Z,11.57
2018-03-07T11:08:08.593Z,13.07
2018-03-07T11:10:34.995Z,8.20
2018-03-07T11:13:02.373Z,7.87
2018-03-07T11:15:28.812Z,8.00
2018-03-07T11:18:02.221Z,12.20
2018-03-07T11:20:28.615Z,8.73
2018-03-07T11:22:55.005Z,11.30
2018-03-07T11:25:21.436Z,6.30
2018-03-07T11:27:47.920Z,5.00
2018-03-07T11:30:14.322Z,5.60
2018-03-07T11:32:40.830Z,6.33
2018-03-07T11:35:07.978Z,5.37
2018-03-07T11:37:35.202Z,28.47
2018-03-07T11:40:01.630Z,6.57
2018-03-07T11:42:28.805Z,4.07
2018-03-07T11:44:55.224Z,4.50
2018-03-07T11:47:21.657Z,5.27
2018-03-07T11:49:48.078Z,3.30
2018-03-07T11:52:14.701Z,3.33
2018-03-07T11:54:41.159Z,4.47
2018-03-07T11:57:07.562Z,2.83
2018-03-07T11:59:33.948Z,4.03
2018-03-07T12:02:01.126Z,5.10
2018-03-07T12:04:27.537Z,2.57
2018-03-07T12:06:53.937Z,3.60
2018-03-07T12:09:21.185Z,6.17
2018-03-07T12:11:47.593Z,5.93
2018-03-07T12:14:14.050Z,2.43
2018-03-07T12:16:40.509Z,2.70
2018-03-07T12:19:07.681Z,5.37
2018-03-07T12:21:34.094Z,3.53
2018-03-07T12:24:01.262Z,2.40
2018-03-07T12:26:27.854Z,3.30
2018-03-07T12:28:55.012Z,5.47
2018-03-07T12:31:21.540Z,2.27
2018-03-07T12:33:48.727Z,5.03
2018-03-07T12:36:15.227Z,7.67
2018-03-07T12:38:42.482Z,11.43
2018-03-07T12:41:09.639Z,9.27
2018-03-07T12:43:36.880Z,5.97
2018-03-07T12:46:03.355Z,8.17
2018-03-07T12:48:29.853Z,6.00
2018-03-07T12:50:56.238Z,3.83
2018-03-07T12:53:22.704Z,3.40
2018-03-07T12:55:49.126Z,2.67
2018-03-07T12:58:15.566Z,2.40
2018-03-07T13:00:42.122Z,23.33
2018-03-07T13:03:08.549Z,5.10
2018-03-07T13:05:34.939Z,4.17
2018-03-07T13:08:01.388Z,2.50
2018-03-07T13:10:27.803Z,4.40
2018-03-07T13:12:54.197Z,2.30
2018-03-07T13:15:21.529Z,2.47
2018-03-07T13:17:48.077Z,4.37
2018-03-07T13:20:14.543Z,5.33
2018-03-07T13:22:41.038Z,3.67
2018-03-07T13:25:07.508Z,5.20
2018-03-07T13:27:33.912Z,1.57
2018-03-07T13:30:00.323Z,1.70
2018-03-07T13:32:26.773Z,4.80
2018-03-07T13:34:53.285Z,5.17
2018-03-07T13:37:19.942Z,4.33
2018-03-07T13:39:47.107Z,3.63
2018-03-07T13:42:14.254Z,6.33
2018-03-07T13:44:41.414Z,1.93
2018-03-07T13:47:08.570Z,13.27
2018-03-07T13:49:35.793Z,8.33
2018-03-07T13:52:02.262Z,4.50
2018-03-07T13:54:28.688Z,4.40
2018-03-07T13:56:55.910Z,2.70
2018-03-07T13:59:22.322Z,4.80
2018-03-07T14:01:48.717Z,5.50
2018-03-07T14:04:15.185Z,7.17
2018-03-07T14:06:41.745Z,3.00
2018-03-07T14:09:08.239Z,6.10
2018-03-07T14:11:34.623Z,3.10
2018-03-07T14:14:01.061Z,2.73
2018-03-07T14:16:27.450Z,1.90
2018-03-07T14:18:53.862Z,7.03
2018-03-07T14:21:20.448Z,4.40
2018-03-07T14:23:46.872Z,5.33
2018-03-07T14:26:13.310Z,15.27
2018-03-07T14:28:39.741Z,2.87
2018-03-07T14:31:06.213Z,1.90
2018-03-07T14:33:32.702Z,1.77
2018-03-07T14:35:59.127Z,5.90
2018-03-07T14:38:26.299Z,14.03
2018-03-07T14:40:53.459Z,6.20
2018-03-07T14:43:20.172Z,2.33
2018-03-07T14:45:46.618Z,1.43
2018-03-07T14:48:13.023Z,2.70
2018-03-07T14:50:39.424Z,3.70
2018-03-07T14:53:05.868Z,4.93
2018-03-07T14:55:32.323Z,2.00
2018-03-07T14:57:58.757Z,5.30
2018-03-07T15:00:25.182Z,1.60
2018-03-07T15:02:53.083Z,3.20
2018-03-07T15:05:20.297Z,2.33
2018-03-07T15:07:46.728Z,1.47
2018-03-07T15:10:13.179Z,2.93
2018-03-07T15:12:39.840Z,1.93
2018-03-07T15:15:06.374Z,1.77
2018-03-07T15:17:33.552Z,7.53
2018-03-07T15:20:00.740Z,6.53
2018-03-07T15:22:27.310Z,3.67
2018-03-07T15:24:54.498Z,4.50
2018-03-07T15:27:20.979Z,5.20
2018-03-07T15:29:47.418Z,4.10
2018-03-07T15:32:13.819Z,2.47
2018-03-07T15:34:40.242Z,2.17
2018-03-07T15:37:06.645Z,4.43
2018-03-07T15:39:33.846Z,4.87
2018-03-07T15:42:00.376Z,2.83
2018-03-07T15:44:26.810Z,2.70
2018-03-07T15:46:53.240Z,3.83
2018-03-07T15:49:19.693Z,2.43
2018-03-07T15:51:46.234Z,10.50
2018-03-07T15:54:12.653Z,3.47
2018-03-07T15:56:39.117Z,2.33
2018-03-07T15:59:06.307Z,4.43
2018-03-07T16:01:32.711Z,5.77
2018-03-07T16:03:59.911Z,2.60
2018-03-07T16:06:26.463Z,8.07
2018-03-07T16:08:52.878Z,5.57
2018-03-07T16:11:19.338Z,4.80
2018-03-07T16:13:45.838Z,2.60
2018-03-07T16:16:12.420Z,3.30
2018-03-07T16:18:39.676Z,2.00
2018-03-07T16:21:06.084Z,4.80
2018-03-07T16:23:32.476Z,2.27
2018-03-07T16:25:58.919Z,3.03
2018-03-07T16:28:25.361Z,1.47
2018-03-07T16:30:51.811Z,3.90
2018-03-07T16:33:18.377Z,3.83
2018-03-07T16:35:44.752Z,5.20
2018-03-07T16:38:11.156Z,3.03
2018-03-07T16:40:37.622Z,2.00
2018-03-07T16:43:04.030Z,3.60
2018-03-07T16:45:30.485Z,3.03
2018-03-07T16:47:56.974Z,2.63
2018-03-07T16:50:23.461Z,5.30
2018-03-07T16:52:49.879Z,2.30
2018-03-07T16:55:16.351Z,2.53
2018-03-07T16:57:42.757Z,5.70
2018-03-07T17:00:09.158Z,7.17
2018-03-07T17:02:35.677Z,3.90
2018-03-07T17:05:03.018Z,1.87
2018-03-07T17:07:37.324Z,2.13
2018-03-07T17:10:04.511Z,2.63
2018-03-07T17:12:30.962Z,3.20
2018-03-07T17:14:57.393Z,2.37
2018-03-07T17:17:23.897Z,2.40
2018-03-07T17:19:50.412Z,5.20
2018-03-07T17:22:16.860Z,2.90
2018-03-07T17:24:43.288Z,2.83
2018-03-07T17:27:10.539Z,4.40
2018-03-07T17:29:36.966Z,3.30
2018-03-07T17:32:03.423Z,3.93
2018-03-07T17:34:29.893Z,4.60
2018-03-07T17:36:56.383Z,3.77
2018-03-07T17:39:23.001Z,3.60
2018-03-07T17:41:49.426Z,2.70
2018-03-07T17:44:15.917Z,3.70
2018-03-07T17:46:42.397Z,4.83
2018-03-07T17:49:08.852Z,3.00
2018-03-07T17:51:35.315Z,4.03
2018-03-07T17:54:01.723Z,3.70
2018-03-07T17:56:28.157Z,2.93
2018-03-07T17:58:54.899Z,3.10
2018-03-07T18:01:21.325Z,3.40
2018-03-07T18:03:47.723Z,4.63
2018-03-07T18:06:14.192Z,6.30
2018-03-07T18:08:40.677Z,3.43
2018-03-07T18:11:07.132Z,4.53
2018-03-07T18:13:33.584Z,3.50
2018-03-07T18:15:59.999Z,3.30
2018-03-07T18:18:26.406Z,5.90
2018-03-07T18:20:52.865Z,5.53
2018-03-07T18:23:19.321Z,3.27
2018-03-07T18:25:46.581Z,3.50
2018-03-07T18:28:13.933Z,3.67
2018-03-07T18:30:40.413Z,3.90
2018-03-07T18:33:06.884Z,3.27
2018-03-07T18:35:33.522Z,6.43
2018-03-07T18:38:00.704Z,8.10
2018-03-07T18:40:27.894Z,4.10
2018-03-07T18:42:55.098Z,3.80
2018-03-07T18:45:21.520Z,8.70
2018-03-07T18:47:47.931Z,5.50
2018-03-07T18:50:14.395Z,3.30
2018-03-07T18:52:40.919Z,3.40
2018-03-07T18:55:07.467Z,4.83
2018-03-07T18:57:34.664Z,5.53
2018-03-07T19:00:01.103Z,6.80
2018-03-07T19:02:27.519Z,8.40
2018-03-07T19:04:53.996Z,4.50
2018-03-07T19:07:20.470Z,5.00
2018-03-07T19:09:47.796Z,3.50
2018-03-07T19:12:15.143Z,3.50
2018-03-07T19:14:41.567Z,4.83
2018-03-07T19:17:08.121Z,4.60
2018-03-07T19:19:34.567Z,3.50
2018-03-07T19:22:01.809Z,4.40
2018-03-07T19:24:28.294Z,4.10
2018-03-07T19:26:54.838Z,4.43
2018-03-07T19:29:21.259Z,7.03
2018-03-07T19:31:47.762Z,5.47
2018-03-07T19:34:14.381Z,5.10
2018-03-07T19:36:41.574Z,4.80
2018-03-07T19:39:07.978Z,5.50
2018-03-07T19:41:34.467Z,5.40
2018-03-07T19:44:00.915Z,7.53
2018-03-07T19:46:27.345Z,4.93
2018-03-07T19:48:53.815Z,11.03
2018-03-07T19:51:20.999Z,4.83
2018-03-07T19:53:47.406Z,8.33
2018-03-07T19:56:13.917Z,4.30
2018-03-07T19:58:40.454Z,6.77
2018-03-07T20:01:07.646Z,4.50
2018-03-07T20:03:34.091Z,4.90
2018-03-07T20:06:00.550Z,4.13
2018-03-07T20:08:27.868Z,7.03
2018-03-07T20:10:54.341Z,4.13
2018-03-07T20:13:20.895Z,3.50
2018-03-07T20:15:48.075Z,3.97
2018-03-07T20:18:15.399Z,4.20
2018-03-07T20:20:41.803Z,2.80
2018-03-07T20:23:08.206Z,3.37
2018-03-07T20:25:34.616Z,4.03
2018-03-07T20:28:01.763Z,3.37
2018-03-07T20:30:28.928Z,4.00
2018-03-07T20:32:55.421Z,3.30
2018-03-07T20:35:21.884Z,13.63
2018-03-07T20:37:49.082Z,3.43
2018-03-07T20:40:23.381Z,3.07
2018-03-07T20:42:49.816Z,3.67
2018-03-07T20:45:16.353Z,3.10
2018-03-07T20:47:42.816Z,2.70
2018-03-07T20:50:09.995Z,2.47
2018-03-07T20:52:37.163Z,2.90
2018-03-07T20:55:04.358Z,3.50
2018-03-07T20:57:30.829Z,2.93
2018-03-07T20:59:57.976Z,2.70
2018-03-07T21:02:25.203Z,3.00
2018-03-07T21:04:51.671Z,2.90
2018-03-07T21:07:18.877Z,8.13
2018-03-07T21:09:45.335Z,2.93
2018-03-07T21:12:11.826Z,2.57
2018-03-07T21:14:38.282Z,2.60
2018-03-07T21:17:04.822Z,2.43
2018-03-07T21:19:31.206Z,2.93
2018-03-07T21:21:58.416Z,3.40
2018-03-07T21:24:24.832Z,3.40
2018-03-07T21:26:51.394Z,5.30
2018-03-07T21:29:18.565Z,3.10
2018-03-07T21:31:45.771Z,3.00
2018-03-07T21:34:12.195Z,4.73
2018-03-07T21:36:38.745Z,5.80
2018-03-07T21:39:05.376Z,3.30
2018-03-07T21:41:32.553Z,3.50
2018-03-07T21:43:59.711Z,4.43
2018-03-07T21:46:26.184Z,4.03
2018-03-07T21:48:52.644Z,3.87
2018-03-07T21:51:19.044Z,5.37
2018-03-07T21:53:45.474Z,4.85
2018-03-07T21:56:12.982Z,3.60
2018-03-07T21:58:39.426Z,5.17
2018-03-07T22:01:05.901Z,4.30
2018-03-07T22:03:32.394Z,5.03
2018-03-07T22:05:58.823Z,6.70
2018-03-07T22:08:25.354Z,4.00
2018-03-07T22:10:51.879Z,3.93
2018-03-07T22:13:19.070Z,4.97
2018-03-07T22:15:46.273Z,4.70
2018-03-07T22:18:12.836Z,5.90
2018-03-07T22:20:39.362Z,5.93
2018-03-07T22:23:06.604Z,5.20
2018-03-07T22:25:33.038Z,6.00
2018-03-07T22:27:59.505Z,5.17
2018-03-07T22:30:26.683Z,6.53
2018-03-07T22:32:53.143Z,4.27
2018-03-07T22:35:19.608Z,5.80
2018-03-07T22:37:46.123Z,6.43
2018-03-07T22:40:12.615Z,6.80
2018-03-07T22:42:39.736Z,6.37
2018-03-07T22:45:06.910Z,7.10
2018-03-07T22:47:33.372Z,12.80
2018-03-07T22:49:59.902Z,6.40
2018-03-07T22:52:26.376Z,7.93
2018-03-07T22:54:52.813Z,7.77
2018-03-07T22:57:19.242Z,12.10
2018-03-07T22:59:45.671Z,8.57
2018-03-07T23:02:12.215Z,8.23
2018-03-07T23:04:39.387Z,10.40
2018-03-07T23:07:06.571Z,7.33
2018-03-07T23:09:32.997Z,6.90
2018-03-07T23:11:59.494Z,8.77
2018-03-07T23:14:25.978Z,8.10
2018-03-07T23:16:52.422Z,10.00
2018-03-07T23:19:19.584Z,9.00
2018-03-07T23:21:46.082Z,9.27
2018-03-07T23:24:12.523Z,9.23
2018-03-07T23:26:38.934Z,9.43
2018-03-07T23:29:05.515Z,10.30
2018-03-07T23:31:31.971Z,8.43
2018-03-07T23:33:58.391Z,9.90
2018-03-07T23:36:24.924Z,8.57
2018-03-07T23:38:51.322Z,8.73
2018-03-07T23:41:17.804Z,9.80
2018-03-07T23:43:45.010Z,8.63
2018-03-07T23:46:12.164Z,10.60
2018-03-07T23:48:38.525Z,8.70
2018-03-07T23:51:04.982Z,9.37
2018-03-07T23:53:32.124Z,11.87
2018-03-07T23:55:58.653Z,10.40
2018-03-07T23:58:25.100Z,11.70
